EDDE

Erfurt Airport

Erfurt, Germany
METAR EDDE 241120Z 29011KT 9999 VCSH FEW018 SCT036CB 10/04 Q1029 TEMPO 29015G25KT
Observed Flight Rules
Sep-24 @ 11:20 UTC (12 minutes ago) Visual Flight Rules
Wind Visibility Clouds
290° at 11 knots 10,000+ meters
  • Few at 1,800' AGL
  • Scattered at 3,600' AGL
Temperatures Readings
Current 10°C / 50°F
Dewpoint 4°C / 39°F
Humidity 67%
Altimeter 30.38" Hg
Pressure 1029 hPa
Elevation 323
METAR EDDE 241120Z 29011KT 9999 VCSH FEW018 SCT036CB 10/04 Q1029 TEMPO 29015G25KT
Observed Flight Rules
Sep-24 @ 11:20 UTC
(12 minutes ago)
VFR
Wind Visibility
290° at 11 knots 10,000+ meters
Clouds
  • Few at 1,800' AGL
  • Scattered at 3,600' AGL
Temperature Dewpoint
10°C / 50°F 4°C / 39°F
Humidity Altimeter Pressure
67% 30.38" Hg 1029 hPa